sensor_id;sensor_type;location;lat;lon;timestamp;P1;durP1;ratioP1;P2;durP2;ratioP2
52942;SDS011;38809;53.300;6.614;2022-08-11T00:02:25;6.47;;;3.40;;
52942;SDS011;38809;53.300;6.614;2022-08-11T00:05:10;7.95;;;3.55;;
52942;SDS011;38809;53.300;6.614;2022-08-11T00:07:49;6.43;;;3.33;;
52942;SDS011;38809;53.300;6.614;2022-08-11T00:10:19;5.03;;;3.63;;
52942;SDS011;38809;53.300;6.614;2022-08-11T00:12:51;5.45;;;3.42;;
52942;SDS011;38809;53.300;6.614;2022-08-11T00:15:25;5.07;;;3.40;;
52942;SDS011;38809;53.300;6.614;2022-08-11T00:17:56;6.53;;;3.25;;
52942;SDS011;38809;53.300;6.614;2022-08-11T00:20:30;5.72;;;3.38;;
52942;SDS011;38809;53.300;6.614;2022-08-11T00:23:08;4.53;;;3.00;;
52942;SDS011;38809;53.300;6.614;2022-08-11T00:25:40;4.53;;;3.65;;
52942;SDS011;38809;53.300;6.614;2022-08-11T00:28:27;4.68;;;3.50;;
52942;SDS011;38809;53.300;6.614;2022-08-11T00:30:59;4.22;;;3.03;;
52942;SDS011;38809;53.300;6.614;2022-08-11T00:33:46;8.30;;;3.50;;
52942;SDS011;38809;53.300;6.614;2022-08-11T00:36:15;5.65;;;3.25;;
52942;SDS011;38809;53.300;6.614;2022-08-11T00:38:43;5.57;;;3.50;;
52942;SDS011;38809;53.300;6.614;2022-08-11T00:44:06;5.28;;;3.63;;
52942;SDS011;38809;53.300;6.614;2022-08-11T00:52:11;7.13;;;3.95;;
52942;SDS011;38809;53.300;6.614;2022-08-11T01:00:21;6.47;;;3.30;;
52942;SDS011;38809;53.300;6.614;2022-08-11T01:03:09;8.98;;;4.30;;
52942;SDS011;38809;53.300;6.614;2022-08-11T01:11:40;5.78;;;3.47;;
52942;SDS011;38809;53.300;6.614;2022-08-11T01:14:35;7.07;;;3.65;;
52942;SDS011;38809;53.300;6.614;2022-08-11T01:31:38;6.15;;;3.80;;
52942;SDS011;38809;53.300;6.614;2022-08-11T01:40:08;5.18;;;3.67;;
52942;SDS011;38809;53.300;6.614;2022-08-11T01:46:00;6.22;;;3.40;;
52942;SDS011;38809;53.300;6.614;2022-08-11T01:48:41;7.95;;;3.58;;
52942;SDS011;38809;53.300;6.614;2022-08-11T01:54:00;7.90;;;3.13;;
52942;SDS011;38809;53.300;6.614;2022-08-11T01:56:45;6.25;;;3.60;;
52942;SDS011;38809;53.300;6.614;2022-08-11T02:01:53;5.95;;;3.08;;
52942;SDS011;38809;53.300;6.614;2022-08-11T02:04:33;5.47;;;3.28;;
52942;SDS011;38809;53.300;6.614;2022-08-11T02:15:41;7.43;;;3.58;;
52942;SDS011;38809;53.300;6.614;2022-08-11T02:21:18;5.20;;;2.90;;
52942;SDS011;38809;53.300;6.614;2022-08-11T02:24:20;4.68;;;3.28;;
52942;SDS011;38809;53.300;6.614;2022-08-11T02:26:56;6.05;;;4.03;;
52942;SDS011;38809;53.300;6.614;2022-08-11T02:29:31;5.65;;;3.97;;
52942;SDS011;38809;53.300;6.614;2022-08-11T02:40:42;4.40;;;2.72;;
52942;SDS011;38809;53.300;6.614;2022-08-11T02:43:30;3.78;;;2.72;;
52942;SDS011;38809;53.300;6.614;2022-08-11T02:52:23;5.25;;;3.20;;
52942;SDS011;38809;53.300;6.614;2022-08-11T02:54:36;5.18;;;3.70;;
52942;SDS011;38809;53.300;6.614;2022-08-11T02:57:28;6.17;;;3.70;;
52942;SDS011;38809;53.300;6.614;2022-08-11T03:05:20;5.22;;;3.58;;
52942;SDS011;38809;53.300;6.614;2022-08-11T03:07:50;5.80;;;3.58;;
52942;SDS011;38809;53.300;6.614;2022-08-11T03:13:21;7.30;;;4.50;;
52942;SDS011;38809;53.300;6.614;2022-08-11T03:22:28;8.65;;;4.95;;
52942;SDS011;38809;53.300;6.614;2022-08-11T03:33:46;6.45;;;4.97;;
52942;SDS011;38809;53.300;6.614;2022-08-11T03:36:43;8.50;;;5.35;;
52942;SDS011;38809;53.300;6.614;2022-08-11T03:42:01;8.15;;;5.65;;
52942;SDS011;38809;53.300;6.614;2022-08-11T03:53:43;8.50;;;5.18;;
52942;SDS011;38809;53.300;6.614;2022-08-11T03:56:21;7.68;;;4.70;;
52942;SDS011;38809;53.300;6.614;2022-08-11T03:59:16;7.17;;;5.20;;
52942;SDS011;38809;53.300;6.614;2022-08-11T04:13:39;9.73;;;6.30;;
52942;SDS011;38809;53.300;6.614;2022-08-11T04:20:18;8.35;;;5.72;;
52942;SDS011;38809;53.300;6.614;2022-08-11T04:23:11;9.57;;;5.65;;
52942;SDS011;38809;53.300;6.614;2022-08-11T04:28:38;7.30;;;5.45;;
52942;SDS011;38809;53.300;6.614;2022-08-11T04:37:32;14.77;;;4.50;;
52942;SDS011;38809;53.300;6.614;2022-08-11T04:55:08;6.43;;;3.97;;
52942;SDS011;38809;53.300;6.614;2022-08-11T05:09:51;4.78;;;3.35;;
52942;SDS011;38809;53.300;6.614;2022-08-11T05:12:45;6.70;;;3.03;;
52942;SDS011;38809;53.300;6.614;2022-08-11T05:15:13;4.82;;;3.28;;
52942;SDS011;38809;53.300;6.614;2022-08-11T05:18:12;5.20;;;3.40;;
52942;SDS011;38809;53.300;6.614;2022-08-11T05:21:02;6.17;;;3.90;;
52942;SDS011;38809;53.300;6.614;2022-08-11T05:23:52;5.65;;;4.40;;
52942;SDS011;38809;53.300;6.614;2022-08-11T05:26:45;7.35;;;4.50;;
52942;SDS011;38809;53.300;6.614;2022-08-11T05:29:35;7.05;;;4.70;;
52942;SDS011;38809;53.300;6.614;2022-08-11T05:32:45;7.38;;;5.10;;
52942;SDS011;38809;53.300;6.614;2022-08-11T05:35:45;9.25;;;5.95;;
52942;SDS011;38809;53.300;6.614;2022-08-11T05:38:21;9.43;;;5.53;;
52942;SDS011;38809;53.300;6.614;2022-08-11T05:41:11;9.73;;;5.82;;
52942;SDS011;38809;53.300;6.614;2022-08-11T05:43:59;9.10;;;5.20;;
52942;SDS011;38809;53.300;6.614;2022-08-11T05:46:46;8.45;;;6.40;;
52942;SDS011;38809;53.300;6.614;2022-08-11T05:49:32;8.05;;;6.03;;
52942;SDS011;38809;53.300;6.614;2022-08-11T05:52:20;10.70;;;7.25;;
52942;SDS011;38809;53.300;6.614;2022-08-11T05:55:08;13.25;;;8.00;;
52942;SDS011;38809;53.300;6.614;2022-08-11T05:58:03;15.50;;;8.30;;
52942;SDS011;38809;53.300;6.614;2022-08-11T06:00:31;12.38;;;8.02;;
52942;SDS011;38809;53.300;6.614;2022-08-11T06:03:06;12.98;;;7.68;;
52942;SDS011;38809;53.300;6.614;2022-08-11T06:05:38;11.02;;;7.65;;
52942;SDS011;38809;53.300;6.614;2022-08-11T06:08:08;11.10;;;7.20;;
52942;SDS011;38809;53.300;6.614;2022-08-11T06:10:38;10.98;;;7.72;;
52942;SDS011;38809;53.300;6.614;2022-08-11T06:13:06;13.18;;;6.97;;
52942;SDS011;38809;53.300;6.614;2022-08-11T06:15:33;10.25;;;6.57;;
52942;SDS011;38809;53.300;6.614;2022-08-11T06:18:09;8.60;;;7.18;;
52942;SDS011;38809;53.300;6.614;2022-08-11T06:20:49;9.32;;;6.35;;
52942;SDS011;38809;53.300;6.614;2022-08-11T06:23:19;9.25;;;5.88;;
52942;SDS011;38809;53.300;6.614;2022-08-11T06:25:48;10.57;;;6.05;;
52942;SDS011;38809;53.300;6.614;2022-08-11T06:28:16;7.00;;;5.38;;
52942;SDS011;38809;53.300;6.614;2022-08-11T06:30:44;9.73;;;5.68;;
52942;SDS011;38809;53.300;6.614;2022-08-11T06:33:14;7.97;;;5.22;;
52942;SDS011;38809;53.300;6.614;2022-08-11T06:41:51;7.38;;;4.70;;
52942;SDS011;38809;53.300;6.614;2022-08-11T06:44:28;7.50;;;5.03;;
52942;SDS011;38809;53.300;6.614;2022-08-11T06:47:03;7.67;;;4.70;;
52942;SDS011;38809;53.300;6.614;2022-08-11T06:49:33;8.43;;;4.85;;
52942;SDS011;38809;53.300;6.614;2022-08-11T06:52:26;7.80;;;5.18;;
52942;SDS011;38809;53.300;6.614;2022-08-11T06:54:59;7.65;;;5.63;;
52942;SDS011;38809;53.300;6.614;2022-08-11T06:57:34;9.32;;;5.05;;
52942;SDS011;38809;53.300;6.614;2022-08-11T07:00:19;7.55;;;4.78;;
52942;SDS011;38809;53.300;6.614;2022-08-11T07:03:07;7.95;;;4.95;;
52942;SDS011;38809;53.300;6.614;2022-08-11T07:08:09;6.43;;;4.88;;
52942;SDS011;38809;53.300;6.614;2022-08-11T07:14:03;7.25;;;4.40;;
52942;SDS011;38809;53.300;6.614;2022-08-11T07:16:49;7.00;;;4.90;;
52942;SDS011;38809;53.300;6.614;2022-08-11T07:19:16;6.88;;;4.75;;
52942;SDS011;38809;53.300;6.614;2022-08-11T07:22:06;7.32;;;4.80;;
52942;SDS011;38809;53.300;6.614;2022-08-11T07:25:00;6.80;;;4.30;;
52942;SDS011;38809;53.300;6.614;2022-08-11T07:27:55;6.97;;;4.40;;
52942;SDS011;38809;53.300;6.614;2022-08-11T07:30:43;6.95;;;3.95;;
52942;SDS011;38809;53.300;6.614;2022-08-11T07:33:11;5.13;;;3.58;;
52942;SDS011;38809;53.300;6.614;2022-08-11T07:35:42;8.02;;;4.57;;
52942;SDS011;38809;53.300;6.614;2022-08-11T07:38:23;5.68;;;3.78;;
52942;SDS011;38809;53.300;6.614;2022-08-11T07:41:08;5.47;;;3.75;;
52942;SDS011;38809;53.300;6.614;2022-08-11T07:43:39;6.90;;;4.03;;
52942;SDS011;38809;53.300;6.614;2022-08-11T07:46:06;5.50;;;3.60;;
52942;SDS011;38809;53.300;6.614;2022-08-11T07:48:50;6.70;;;3.78;;
52942;SDS011;38809;53.300;6.614;2022-08-11T07:51:36;4.82;;;3.33;;
52942;SDS011;38809;53.300;6.614;2022-08-11T07:54:21;4.35;;;3.55;;
52942;SDS011;38809;53.300;6.614;2022-08-11T07:59:13;4.35;;;3.17;;
52942;SDS011;38809;53.300;6.614;2022-08-11T08:01:59;6.40;;;3.22;;
52942;SDS011;38809;53.300;6.614;2022-08-11T08:04:44;4.10;;;3.10;;
52942;SDS011;38809;53.300;6.614;2022-08-11T08:07:29;4.63;;;3.17;;
52942;SDS011;38809;53.300;6.614;2022-08-11T08:10:14;6.40;;;3.22;;
52942;SDS011;38809;53.300;6.614;2022-08-11T08:15:45;5.95;;;2.95;;
52942;SDS011;38809;53.300;6.614;2022-08-11T08:18:32;11.95;;;4.75;;
52942;SDS011;38809;53.300;6.614;2022-08-11T08:21:00;6.00;;;2.88;;
52942;SDS011;38809;53.300;6.614;2022-08-11T08:23:36;4.20;;;2.70;;
52942;SDS011;38809;53.300;6.614;2022-08-11T08:26:06;4.20;;;2.10;;
52942;SDS011;38809;53.300;6.614;2022-08-11T08:28:52;4.13;;;2.15;;
52942;SDS011;38809;53.300;6.614;2022-08-11T08:31:19;3.90;;;2.08;;
52942;SDS011;38809;53.300;6.614;2022-08-11T08:36:11;4.63;;;2.00;;
52942;SDS011;38809;53.300;6.614;2022-08-11T08:38:49;3.08;;;1.95;;
52942;SDS011;38809;53.300;6.614;2022-08-11T08:41:24;3.53;;;1.70;;
52942;SDS011;38809;53.300;6.614;2022-08-11T08:44:00;4.50;;;2.05;;
52942;SDS011;38809;53.300;6.614;2022-08-11T08:46:34;2.83;;;1.20;;
52942;SDS011;38809;53.300;6.614;2022-08-11T08:49:04;2.45;;;1.60;;
52942;SDS011;38809;53.300;6.614;2022-08-11T08:51:35;4.65;;;1.80;;
52942;SDS011;38809;53.300;6.614;2022-08-11T08:54:05;4.40;;;1.60;;
52942;SDS011;38809;53.300;6.614;2022-08-11T08:56:33;2.65;;;1.40;;
52942;SDS011;38809;53.300;6.614;2022-08-11T08:59:02;2.78;;;1.58;;
52942;SDS011;38809;53.300;6.614;2022-08-11T09:01:29;3.17;;;1.42;;
52942;SDS011;38809;53.300;6.614;2022-08-11T09:04:00;2.25;;;1.40;;
52942;SDS011;38809;53.300;6.614;2022-08-11T09:06:30;1.92;;;1.30;;
52942;SDS011;38809;53.300;6.614;2022-08-11T09:08:57;3.08;;;1.50;;
52942;SDS011;38809;53.300;6.614;2022-08-11T09:11:24;2.85;;;1.33;;
52942;SDS011;38809;53.300;6.614;2022-08-11T09:14:08;2.55;;;1.10;;
52942;SDS011;38809;53.300;6.614;2022-08-11T09:16:35;1.85;;;1.20;;
52942;SDS011;38809;53.300;6.614;2022-08-11T09:19:03;2.15;;;1.00;;
52942;SDS011;38809;53.300;6.614;2022-08-11T09:21:29;2.38;;;1.10;;
52942;SDS011;38809;53.300;6.614;2022-08-11T09:23:56;3.55;;;1.20;;
52942;SDS011;38809;53.300;6.614;2022-08-11T09:26:42;2.10;;;1.00;;
52942;SDS011;38809;53.300;6.614;2022-08-11T09:29:23;2.83;;;1.20;;
52942;SDS011;38809;53.300;6.614;2022-08-11T09:31:55;2.92;;;1.33;;
52942;SDS011;38809;53.300;6.614;2022-08-11T09:34:22;1.73;;;0.93;;
52942;SDS011;38809;53.300;6.614;2022-08-11T09:36:49;1.58;;;0.80;;
52942;SDS011;38809;53.300;6.614;2022-08-11T09:39:35;2.03;;;0.90;;
52942;SDS011;38809;53.300;6.614;2022-08-11T09:42:22;3.88;;;1.00;;
52942;SDS011;38809;53.300;6.614;2022-08-11T09:45:10;2.25;;;1.30;;
52942;SDS011;38809;53.300;6.614;2022-08-11T09:47:36;2.60;;;1.00;;
52942;SDS011;38809;53.300;6.614;2022-08-11T09:50:04;1.65;;;1.02;;
52942;SDS011;38809;53.300;6.614;2022-08-11T09:52:35;1.65;;;1.13;;
52942;SDS011;38809;53.300;6.614;2022-08-11T09:55:05;2.42;;;0.90;;
52942;SDS011;38809;53.300;6.614;2022-08-11T09:57:37;2.72;;;1.15;;
52942;SDS011;38809;53.300;6.614;2022-08-11T10:02:52;1.92;;;0.80;;
52942;SDS011;38809;53.300;6.614;2022-08-11T10:05:20;2.75;;;1.30;;
52942;SDS011;38809;53.300;6.614;2022-08-11T10:08:06;1.85;;;0.90;;
52942;SDS011;38809;53.300;6.614;2022-08-11T10:10:36;2.42;;;1.33;;
52942;SDS011;38809;53.300;6.614;2022-08-11T10:13:08;1.85;;;1.05;;
52942;SDS011;38809;53.300;6.614;2022-08-11T10:15:38;1.88;;;0.95;;
52942;SDS011;38809;53.300;6.614;2022-08-11T10:18:10;2.13;;;1.10;;
52942;SDS011;38809;53.300;6.614;2022-08-11T10:20:59;2.40;;;1.08;;
52942;SDS011;38809;53.300;6.614;2022-08-11T10:23:34;2.58;;;1.30;;
52942;SDS011;38809;53.300;6.614;2022-08-11T10:26:20;2.22;;;1.00;;
52942;SDS011;38809;53.300;6.614;2022-08-11T10:29:06;1.63;;;1.30;;
52942;SDS011;38809;53.300;6.614;2022-08-11T10:31:53;3.58;;;1.33;;
52942;SDS011;38809;53.300;6.614;2022-08-11T10:34:39;3.47;;;1.13;;
52942;SDS011;38809;53.300;6.614;2022-08-11T10:37:07;2.20;;;0.93;;
52942;SDS011;38809;53.300;6.614;2022-08-11T10:39:34;1.92;;;1.08;;
52942;SDS011;38809;53.300;6.614;2022-08-11T10:42:02;2.90;;;1.08;;
52942;SDS011;38809;53.300;6.614;2022-08-11T10:44:49;2.83;;;1.08;;
52942;SDS011;38809;53.300;6.614;2022-08-11T10:47:17;2.72;;;0.90;;
52942;SDS011;38809;53.300;6.614;2022-08-11T10:50:10;2.53;;;1.40;;
52942;SDS011;38809;53.300;6.614;2022-08-11T10:52:56;1.58;;;0.90;;
52942;SDS011;38809;53.300;6.614;2022-08-11T10:55:43;4.25;;;1.27;;
52942;SDS011;38809;53.300;6.614;2022-08-11T10:58:29;2.40;;;0.90;;
52942;SDS011;38809;53.300;6.614;2022-08-11T11:01:25;1.67;;;1.08;;
52942;SDS011;38809;53.300;6.614;2022-08-11T11:03:54;1.98;;;1.10;;
52942;SDS011;38809;53.300;6.614;2022-08-11T11:09:27;2.47;;;1.17;;
52942;SDS011;38809;53.300;6.614;2022-08-11T11:11:58;3.83;;;1.23;;
52942;SDS011;38809;53.300;6.614;2022-08-11T11:14:49;2.70;;;1.20;;
52942;SDS011;38809;53.300;6.614;2022-08-11T11:18:18;2.78;;;0.95;;
52942;SDS011;38809;53.300;6.614;2022-08-11T11:23:07;2.30;;;1.05;;
52942;SDS011;38809;53.300;6.614;2022-08-11T11:39:12;2.85;;;1.00;;
52942;SDS011;38809;53.300;6.614;2022-08-11T11:41:41;2.53;;;0.80;;
52942;SDS011;38809;53.300;6.614;2022-08-11T11:44:07;3.42;;;1.00;;
52942;SDS011;38809;53.300;6.614;2022-08-11T11:46:36;2.00;;;1.02;;
52942;SDS011;38809;53.300;6.614;2022-08-11T11:51:33;3.70;;;0.90;;
52942;SDS011;38809;53.300;6.614;2022-08-11T11:56:26;1.40;;;0.77;;
52942;SDS011;38809;53.300;6.614;2022-08-11T11:58:53;2.53;;;0.90;;
52942;SDS011;38809;53.300;6.614;2022-08-11T12:01:38;2.22;;;1.08;;
52942;SDS011;38809;53.300;6.614;2022-08-11T12:06:30;1.83;;;1.00;;
52942;SDS011;38809;53.300;6.614;2022-08-11T12:08:57;1.85;;;0.90;;
52942;SDS011;38809;53.300;6.614;2022-08-11T12:11:25;2.70;;;1.35;;
52942;SDS011;38809;53.300;6.614;2022-08-11T12:16:40;2.60;;;0.90;;
52942;SDS011;38809;53.300;6.614;2022-08-11T12:19:13;1.88;;;0.90;;
52942;SDS011;38809;53.300;6.614;2022-08-11T12:21:40;2.25;;;0.90;;
52942;SDS011;38809;53.300;6.614;2022-08-11T12:24:28;2.25;;;0.93;;
52942;SDS011;38809;53.300;6.614;2022-08-11T12:27:13;2.80;;;0.90;;
52942;SDS011;38809;53.300;6.614;2022-08-11T12:29:46;1.67;;;0.82;;
52942;SDS011;38809;53.300;6.614;2022-08-11T12:32:14;2.70;;;1.00;;
52942;SDS011;38809;53.300;6.614;2022-08-11T12:34:40;2.58;;;1.40;;
52942;SDS011;38809;53.300;6.614;2022-08-11T12:39:37;2.10;;;1.10;;
52942;SDS011;38809;53.300;6.614;2022-08-11T12:42:33;2.55;;;1.38;;
52942;SDS011;38809;53.300;6.614;2022-08-11T12:45:18;1.63;;;1.10;;
52942;SDS011;38809;53.300;6.614;2022-08-11T12:48:12;2.03;;;1.10;;
52942;SDS011;38809;53.300;6.614;2022-08-11T12:51:02;3.10;;;0.95;;
52942;SDS011;38809;53.300;6.614;2022-08-11T12:53:56;1.75;;;0.90;;
52942;SDS011;38809;53.300;6.614;2022-08-11T12:56:32;2.15;;;1.00;;
52942;SDS011;38809;53.300;6.614;2022-08-11T12:59:22;3.20;;;0.90;;
52942;SDS011;38809;53.300;6.614;2022-08-11T13:02:08;1.55;;;0.80;;
52942;SDS011;38809;53.300;6.614;2022-08-11T13:04:58;2.38;;;1.05;;
52942;SDS011;38809;53.300;6.614;2022-08-11T13:07:26;2.47;;;1.00;;
52942;SDS011;38809;53.300;6.614;2022-08-11T13:09:53;2.67;;;1.00;;
52942;SDS011;38809;53.300;6.614;2022-08-11T13:12:24;2.75;;;1.38;;
52942;SDS011;38809;53.300;6.614;2022-08-11T13:15:09;1.90;;;0.93;;
52942;SDS011;38809;53.300;6.614;2022-08-11T13:17:37;2.40;;;0.85;;
52942;SDS011;38809;53.300;6.614;2022-08-11T13:20:05;2.15;;;1.00;;
52942;SDS011;38809;53.300;6.614;2022-08-11T13:22:33;1.98;;;1.10;;
52942;SDS011;38809;53.300;6.614;2022-08-11T13:25:02;4.00;;;0.90;;
52942;SDS011;38809;53.300;6.614;2022-08-11T13:27:28;2.30;;;1.00;;
52942;SDS011;38809;53.300;6.614;2022-08-11T13:29:54;2.20;;;1.05;;
52942;SDS011;38809;53.300;6.614;2022-08-11T13:32:40;1.73;;;0.93;;
52942;SDS011;38809;53.300;6.614;2022-08-11T13:35:08;2.33;;;0.80;;
52942;SDS011;38809;53.300;6.614;2022-08-11T13:37:36;2.22;;;0.90;;
52942;SDS011;38809;53.300;6.614;2022-08-11T13:40:02;2.97;;;1.50;;
52942;SDS011;38809;53.300;6.614;2022-08-11T13:42:28;1.98;;;1.13;;
52942;SDS011;38809;53.300;6.614;2022-08-11T13:44:54;2.53;;;1.40;;
52942;SDS011;38809;53.300;6.614;2022-08-11T13:47:22;1.77;;;1.00;;
52942;SDS011;38809;53.300;6.614;2022-08-11T13:49:49;2.80;;;1.35;;
52942;SDS011;38809;53.300;6.614;2022-08-11T13:52:16;3.72;;;1.33;;
52942;SDS011;38809;53.300;6.614;2022-08-11T13:54:43;3.10;;;1.30;;
52942;SDS011;38809;53.300;6.614;2022-08-11T13:57:12;2.50;;;1.30;;
52942;SDS011;38809;53.300;6.614;2022-08-11T13:59:40;3.22;;;1.45;;
52942;SDS011;38809;53.300;6.614;2022-08-11T14:02:07;3.15;;;1.10;;
52942;SDS011;38809;53.300;6.614;2022-08-11T14:04:53;3.03;;;1.40;;
52942;SDS011;38809;53.300;6.614;2022-08-11T14:07:21;2.78;;;1.10;;
52942;SDS011;38809;53.300;6.614;2022-08-11T14:09:57;3.40;;;1.10;;
52942;SDS011;38809;53.300;6.614;2022-08-11T14:12:28;3.15;;;1.10;;
52942;SDS011;38809;53.300;6.614;2022-08-11T14:15:27;3.53;;;1.38;;
52942;SDS011;38809;53.300;6.614;2022-08-11T14:17:58;1.48;;;0.77;;
52942;SDS011;38809;53.300;6.614;2022-08-11T14:20:33;2.83;;;1.00;;
52942;SDS011;38809;53.300;6.614;2022-08-11T14:23:39;2.38;;;1.20;;
52942;SDS011;38809;53.300;6.614;2022-08-11T14:28:51;2.95;;;1.15;;
52942;SDS011;38809;53.300;6.614;2022-08-11T14:31:32;3.42;;;1.20;;
52942;SDS011;38809;53.300;6.614;2022-08-11T14:34:00;2.13;;;1.10;;
52942;SDS011;38809;53.300;6.614;2022-08-11T14:36:42;2.92;;;1.27;;
52942;SDS011;38809;53.300;6.614;2022-08-11T14:39:14;2.85;;;1.20;;
52942;SDS011;38809;53.300;6.614;2022-08-11T14:41:42;2.45;;;1.20;;
52942;SDS011;38809;53.300;6.614;2022-08-11T14:44:33;1.50;;;0.90;;
52942;SDS011;38809;53.300;6.614;2022-08-11T14:47:19;3.05;;;1.30;;
52942;SDS011;38809;53.300;6.614;2022-08-11T14:49:46;1.95;;;0.93;;
52942;SDS011;38809;53.300;6.614;2022-08-11T14:52:14;2.70;;;1.10;;
52942;SDS011;38809;53.300;6.614;2022-08-11T14:54:44;2.65;;;1.20;;
52942;SDS011;38809;53.300;6.614;2022-08-11T14:57:30;2.90;;;1.33;;
52942;SDS011;38809;53.300;6.614;2022-08-11T14:59:59;2.60;;;1.05;;
52942;SDS011;38809;53.300;6.614;2022-08-11T15:02:27;2.72;;;1.00;;
52942;SDS011;38809;53.300;6.614;2022-08-11T15:05:12;4.93;;;1.00;;
52942;SDS011;38809;53.300;6.614;2022-08-11T15:07:39;3.75;;;1.20;;
52942;SDS011;38809;53.300;6.614;2022-08-11T15:10:06;2.00;;;1.20;;
52942;SDS011;38809;53.300;6.614;2022-08-11T15:12:35;3.25;;;1.30;;
52942;SDS011;38809;53.300;6.614;2022-08-11T15:15:04;5.55;;;1.30;;
52942;SDS011;38809;53.300;6.614;2022-08-11T15:17:50;2.72;;;1.20;;
52942;SDS011;38809;53.300;6.614;2022-08-11T15:20:18;2.15;;;1.20;;
52942;SDS011;38809;53.300;6.614;2022-08-11T15:23:04;2.30;;;1.27;;
52942;SDS011;38809;53.300;6.614;2022-08-11T15:25:49;5.85;;;1.20;;
52942;SDS011;38809;53.300;6.614;2022-08-11T15:28:19;2.95;;;1.30;;
52942;SDS011;38809;53.300;6.614;2022-08-11T15:31:06;6.95;;;1.45;;
52942;SDS011;38809;53.300;6.614;2022-08-11T15:33:51;2.78;;;1.20;;
52942;SDS011;38809;53.300;6.614;2022-08-11T15:36:47;4.15;;;1.40;;
52942;SDS011;38809;53.300;6.614;2022-08-11T15:42:03;2.88;;;1.52;;
52942;SDS011;38809;53.300;6.614;2022-08-11T15:44:56;2.60;;;1.20;;
52942;SDS011;38809;53.300;6.614;2022-08-11T15:47:48;5.63;;;1.65;;
52942;SDS011;38809;53.300;6.614;2022-08-11T15:50:24;3.40;;;1.40;;
52942;SDS011;38809;53.300;6.614;2022-08-11T15:53:40;2.30;;;1.30;;
52942;SDS011;38809;53.300;6.614;2022-08-11T15:55:40;2.60;;;1.38;;
52942;SDS011;38809;53.300;6.614;2022-08-11T15:58:07;3.35;;;1.58;;
52942;SDS011;38809;53.300;6.614;2022-08-11T16:00:54;3.90;;;1.45;;
52942;SDS011;38809;53.300;6.614;2022-08-11T16:04:02;5.40;;;1.50;;
52942;SDS011;38809;53.300;6.614;2022-08-11T16:09:37;3.60;;;1.35;;
52942;SDS011;38809;53.300;6.614;2022-08-11T16:12:10;3.83;;;1.52;;
52942;SDS011;38809;53.300;6.614;2022-08-11T16:14:39;2.67;;;1.50;;
52942;SDS011;38809;53.300;6.614;2022-08-11T16:17:26;3.92;;;1.80;;
52942;SDS011;38809;53.300;6.614;2022-08-11T16:19:55;2.95;;;1.40;;
52942;SDS011;38809;53.300;6.614;2022-08-11T16:22:23;3.80;;;1.60;;
52942;SDS011;38809;53.300;6.614;2022-08-11T16:25:06;3.63;;;1.27;;
52942;SDS011;38809;53.300;6.614;2022-08-11T16:27:39;2.60;;;1.38;;
52942;SDS011;38809;53.300;6.614;2022-08-11T16:30:08;2.65;;;1.42;;
52942;SDS011;38809;53.300;6.614;2022-08-11T16:32:35;2.63;;;1.17;;
52942;SDS011;38809;53.300;6.614;2022-08-11T16:35:25;3.25;;;1.42;;
52942;SDS011;38809;53.300;6.614;2022-08-11T16:38:10;3.35;;;1.40;;
52942;SDS011;38809;53.300;6.614;2022-08-11T16:40:57;4.28;;;1.20;;
52942;SDS011;38809;53.300;6.614;2022-08-11T16:43:25;2.17;;;1.10;;
52942;SDS011;38809;53.300;6.614;2022-08-11T16:46:15;3.65;;;1.25;;
52942;SDS011;38809;53.300;6.614;2022-08-11T16:48:44;2.63;;;1.33;;
52942;SDS011;38809;53.300;6.614;2022-08-11T16:51:12;4.57;;;1.30;;
52942;SDS011;38809;53.300;6.614;2022-08-11T16:53:39;2.05;;;1.30;;
52942;SDS011;38809;53.300;6.614;2022-08-11T16:56:10;2.22;;;1.30;;
52942;SDS011;38809;53.300;6.614;2022-08-11T16:58:41;2.88;;;1.50;;
52942;SDS011;38809;53.300;6.614;2022-08-11T17:01:26;3.03;;;1.55;;
52942;SDS011;38809;53.300;6.614;2022-08-11T17:03:55;3.08;;;1.40;;
52942;SDS011;38809;53.300;6.614;2022-08-11T17:06:43;3.22;;;1.42;;
52942;SDS011;38809;53.300;6.614;2022-08-11T17:09:31;2.28;;;1.25;;
52942;SDS011;38809;53.300;6.614;2022-08-11T17:12:18;4.18;;;1.33;;
52942;SDS011;38809;53.300;6.614;2022-08-11T17:15:08;2.78;;;1.33;;
52942;SDS011;38809;53.300;6.614;2022-08-11T17:17:57;2.90;;;1.10;;
52942;SDS011;38809;53.300;6.614;2022-08-11T17:20:24;4.22;;;1.65;;
52942;SDS011;38809;53.300;6.614;2022-08-11T17:22:52;3.88;;;1.45;;
52942;SDS011;38809;53.300;6.614;2022-08-11T17:25:37;2.67;;;1.30;;
52942;SDS011;38809;53.300;6.614;2022-08-11T17:28:05;2.35;;;1.20;;
52942;SDS011;38809;53.300;6.614;2022-08-11T17:30:31;5.65;;;1.58;;
52942;SDS011;38809;53.300;6.614;2022-08-11T17:33:16;4.05;;;1.65;;
52942;SDS011;38809;53.300;6.614;2022-08-11T17:36:02;1.98;;;1.55;;
52942;SDS011;38809;53.300;6.614;2022-08-11T17:38:28;3.25;;;1.30;;
52942;SDS011;38809;53.300;6.614;2022-08-11T17:40:58;3.72;;;1.33;;
52942;SDS011;38809;53.300;6.614;2022-08-11T17:43:44;2.30;;;1.20;;
52942;SDS011;38809;53.300;6.614;2022-08-11T17:46:30;4.15;;;2.33;;
52942;SDS011;38809;53.300;6.614;2022-08-11T17:49:16;4.78;;;1.30;;
52942;SDS011;38809;53.300;6.614;2022-08-11T17:51:44;3.42;;;1.48;;
52942;SDS011;38809;53.300;6.614;2022-08-11T17:54:31;3.15;;;1.50;;
52942;SDS011;38809;53.300;6.614;2022-08-11T17:57:17;3.95;;;1.30;;
52942;SDS011;38809;53.300;6.614;2022-08-11T18:00:03;3.53;;;1.48;;
52942;SDS011;38809;53.300;6.614;2022-08-11T18:02:35;2.75;;;1.30;;
52942;SDS011;38809;53.300;6.614;2022-08-11T18:05:29;4.40;;;1.40;;
52942;SDS011;38809;53.300;6.614;2022-08-11T18:07:58;2.10;;;1.30;;
52942;SDS011;38809;53.300;6.614;2022-08-11T18:10:45;1.98;;;1.02;;
52942;SDS011;38809;53.300;6.614;2022-08-11T18:13:32;3.00;;;1.20;;
52942;SDS011;38809;53.300;6.614;2022-08-11T18:16:19;1.70;;;1.02;;
52942;SDS011;38809;53.300;6.614;2022-08-11T18:19:05;4.70;;;1.50;;
52942;SDS011;38809;53.300;6.614;2022-08-11T18:21:51;1.90;;;1.08;;
52942;SDS011;38809;53.300;6.614;2022-08-11T18:24:40;2.75;;;1.30;;
52942;SDS011;38809;53.300;6.614;2022-08-11T18:27:29;3.30;;;1.30;;
52942;SDS011;38809;53.300;6.614;2022-08-11T18:30:15;4.43;;;1.25;;
52942;SDS011;38809;53.300;6.614;2022-08-11T18:33:00;2.85;;;1.20;;
52942;SDS011;38809;53.300;6.614;2022-08-11T18:35:47;1.85;;;1.10;;
52942;SDS011;38809;53.300;6.614;2022-08-11T18:38:36;2.10;;;1.40;;
52942;SDS011;38809;53.300;6.614;2022-08-11T18:44:09;2.80;;;1.30;;
52942;SDS011;38809;53.300;6.614;2022-08-11T18:46:57;2.72;;;1.30;;
52942;SDS011;38809;53.300;6.614;2022-08-11T18:49:44;2.38;;;1.20;;
52942;SDS011;38809;53.300;6.614;2022-08-11T18:52:30;1.98;;;0.90;;
52942;SDS011;38809;53.300;6.614;2022-08-11T18:55:18;3.88;;;1.60;;
52942;SDS011;38809;53.300;6.614;2022-08-11T18:58:04;1.88;;;1.20;;
52942;SDS011;38809;53.300;6.614;2022-08-11T19:00:53;2.80;;;1.38;;
52942;SDS011;38809;53.300;6.614;2022-08-11T19:03:41;2.00;;;1.30;;
52942;SDS011;38809;53.300;6.614;2022-08-11T19:06:27;2.65;;;1.40;;
52942;SDS011;38809;53.300;6.614;2022-08-11T19:09:14;3.05;;;1.50;;
52942;SDS011;38809;53.300;6.614;2022-08-11T19:12:00;2.92;;;1.45;;
52942;SDS011;38809;53.300;6.614;2022-08-11T19:14:46;3.05;;;1.38;;
52942;SDS011;38809;53.300;6.614;2022-08-11T19:17:34;4.10;;;1.60;;
52942;SDS011;38809;53.300;6.614;2022-08-11T19:20:21;4.65;;;1.63;;
52942;SDS011;38809;53.300;6.614;2022-08-11T19:23:08;2.30;;;1.50;;
52942;SDS011;38809;53.300;6.614;2022-08-11T19:25:54;2.65;;;1.60;;
52942;SDS011;38809;53.300;6.614;2022-08-11T19:28:41;3.47;;;1.70;;
52942;SDS011;38809;53.300;6.614;2022-08-11T19:31:27;2.58;;;1.55;;
52942;SDS011;38809;53.300;6.614;2022-08-11T19:34:13;5.78;;;1.70;;
52942;SDS011;38809;53.300;6.614;2022-08-11T19:36:59;4.60;;;1.60;;
52942;SDS011;38809;53.300;6.614;2022-08-11T19:39:45;2.65;;;1.70;;
52942;SDS011;38809;53.300;6.614;2022-08-11T19:42:30;4.68;;;1.65;;